createdAt,value
2023-05-13T00:02:01.616Z,51.17
2023-05-13T00:07:03.118Z,51.36
2023-05-13T00:12:04.837Z,51.90
2023-05-13T00:17:06.523Z,52.32
2023-05-13T00:22:07.782Z,52.77
2023-05-13T00:27:09.552Z,52.77
2023-05-13T00:32:14.941Z,53.05
2023-05-13T00:37:16.339Z,53.30
2023-05-13T00:42:17.770Z,53.66
2023-05-13T00:47:21.014Z,54.26
2023-05-13T00:52:22.222Z,54.44
2023-05-13T00:57:23.572Z,54.82
2023-05-13T01:02:34.136Z,55.21
2023-05-13T01:08:11.046Z,55.72
2023-05-13T01:13:15.888Z,56.04
2023-05-13T01:18:26.033Z,56.27
2023-05-13T01:23:43.227Z,56.55
2023-05-13T01:29:44.566Z,56.98
2023-05-13T01:36:06.707Z,57.08
2023-05-13T01:41:28.637Z,57.39
2023-05-13T01:46:30.035Z,57.61
2023-05-13T01:51:31.321Z,57.74
2023-05-13T01:56:32.606Z,57.68
2023-05-13T02:01:33.965Z,57.26
2023-05-13T02:06:35.521Z,57.18
2023-05-13T02:11:37.231Z,57.16
2023-05-13T02:16:38.582Z,56.91
2023-05-13T02:21:43.058Z,56.77
2023-05-13T02:26:44.505Z,56.49
2023-05-13T02:31:45.894Z,56.10
2023-05-13T02:36:48.023Z,55.67
2023-05-13T02:41:49.347Z,55.47
2023-05-13T02:46:50.896Z,55.29
2023-05-13T02:51:52.474Z,55.16
2023-05-13T02:56:56.488Z,55.17
2023-05-13T03:01:57.856Z,55.47
2023-05-13T03:06:59.000Z,55.73
2023-05-13T03:12:00.633Z,56.23
2023-05-13T03:17:10.818Z,56.03
2023-05-13T03:22:12.413Z,56.06
2023-05-13T03:27:13.740Z,56.21
2023-05-13T03:32:15.048Z,56.37
2023-05-13T03:37:16.464Z,56.66
2023-05-13T03:42:18.069Z,56.59
2023-05-13T03:48:19.546Z,57.06
2023-05-13T03:54:40.454Z,57.14
2023-05-13T03:59:56.767Z,57.14
2023-05-13T04:05:57.842Z,57.42
2023-05-13T04:12:18.712Z,57.84
2023-05-13T04:18:39.848Z,58.02
2023-05-13T04:25:00.865Z,58.61
2023-05-13T04:31:21.929Z,58.39
2023-05-13T04:37:52.973Z,58.73
2023-05-13T04:44:14.980Z,58.79
2023-05-13T04:50:37.391Z,59.51
2023-05-13T04:57:23.723Z,59.60
2023-05-13T05:04:27.444Z,60.03
2023-05-13T05:11:30.231Z,60.43
2023-05-13T05:18:33.099Z,60.67
2023-05-13T05:25:35.937Z,60.49
2023-05-13T05:32:38.421Z,60.50
2023-05-13T05:39:41.231Z,60.98
2023-05-13T05:46:43.678Z,60.60
2023-05-13T05:53:46.334Z,60.21
2023-05-13T06:00:34.092Z,59.88
2023-05-13T06:07:36.768Z,59.49
2023-05-13T06:14:39.447Z,59.03
2023-05-13T06:21:43.825Z,57.95
2023-05-13T06:28:46.544Z,56.59
2023-05-13T06:35:34.397Z,54.97
2023-05-13T06:42:10.076Z,52.96
2023-05-13T06:48:55.984Z,52.63
2023-05-13T06:55:20.935Z,46.87
2023-05-13T07:01:53.232Z,44.75
2023-05-13T07:08:48.796Z,40.17
2023-05-13T07:15:13.742Z,38.36
2023-05-13T07:22:01.636Z,37.16
2023-05-13T07:28:48.307Z,35.55
2023-05-13T07:35:31.955Z,31.01
2023-05-13T07:42:34.715Z,28.80
2023-05-13T07:49:13.254Z,29.78
2023-05-13T07:55:33.623Z,29.94
2023-05-13T08:02:26.163Z,29.40
2023-05-13T08:09:02.988Z,29.01
2023-05-13T08:15:47.443Z,27.52
2023-05-13T08:22:13.816Z,27.80
2023-05-13T08:29:00.678Z,29.32
2023-05-13T08:35:45.535Z,29.36
2023-05-13T08:42:39.429Z,31.43
2023-05-13T08:49:25.334Z,33.32
2023-05-13T08:55:28.060Z,34.28
2023-05-13T09:02:03.232Z,34.41
2023-05-13T09:07:51.193Z,34.82
2023-05-13T09:14:19.126Z,34.76
2023-05-13T09:21:21.829Z,36.02
2023-05-13T09:28:24.446Z,36.64
2023-05-13T09:35:07.014Z,35.11
2023-05-13T09:41:38.693Z,34.81
2023-05-13T09:47:20.321Z,35.56
2023-05-13T09:53:28.830Z,33.62
2023-05-13T09:59:38.117Z,30.99
2023-05-13T10:06:08.028Z,30.86
2023-05-13T10:12:52.501Z,29.83
2023-05-13T10:18:24.898Z,30.52
2023-05-13T10:24:07.722Z,30.87
2023-05-13T10:30:31.239Z,31.02
2023-05-13T10:37:27.811Z,29.75
2023-05-13T10:44:12.104Z,29.60
2023-05-13T10:50:05.507Z,30.62
2023-05-13T10:56:51.113Z,28.63
2023-05-13T11:03:25.580Z,26.39
2023-05-13T11:09:51.336Z,24.76
2023-05-13T11:16:33.789Z,24.55
2023-05-13T11:23:07.845Z,22.41
2023-05-13T11:29:46.644Z,22.48
2023-05-13T11:35:44.618Z,23.77
2023-05-13T11:42:17.837Z,22.93
2023-05-13T11:48:59.061Z,22.23
2023-05-13T11:56:07.713Z,22.58
2023-05-13T12:03:10.474Z,23.24
2023-05-13T12:09:48.303Z,25.79
2023-05-13T12:15:56.023Z,27.29
2023-05-13T12:21:45.844Z,27.14
2023-05-13T12:27:50.242Z,26.51
2023-05-13T12:34:01.701Z,26.04
2023-05-13T12:40:26.728Z,25.95
2023-05-13T12:46:25.236Z,26.00
2023-05-13T12:52:22.904Z,27.21
2023-05-13T12:58:34.986Z,28.55
2023-05-13T13:04:22.863Z,29.88
2023-05-13T13:10:29.222Z,29.75
2023-05-13T13:16:25.719Z,30.36
2023-05-13T13:23:02.403Z,31.01
2023-05-13T13:29:08.555Z,31.79
2023-05-13T13:36:02.508Z,31.51
2023-05-13T13:42:45.284Z,32.51
2023-05-13T13:49:27.749Z,32.89
2023-05-13T13:56:30.506Z,33.37
2023-05-13T14:03:32.162Z,33.03
2023-05-13T14:09:52.101Z,32.99
2023-05-13T14:16:20.105Z,33.23
2023-05-13T14:23:05.359Z,33.16
2023-05-13T14:29:58.489Z,33.83
2023-05-13T14:37:01.065Z,34.41
2023-05-13T14:43:42.975Z,34.53
2023-05-13T14:50:19.813Z,34.32
2023-05-13T14:56:47.220Z,34.40
2023-05-13T15:03:17.395Z,34.32
2023-05-13T15:09:39.261Z,34.30
2023-05-13T15:15:36.227Z,34.62
2023-05-13T15:21:23.854Z,34.50
2023-05-13T15:27:21.085Z,34.80
2023-05-13T15:33:34.102Z,35.12
2023-05-13T15:39:12.742Z,35.32
2023-05-13T15:45:32.914Z,35.46
2023-05-13T15:52:07.007Z,35.88
2023-05-13T15:57:38.991Z,36.36
2023-05-13T16:03:30.470Z,36.41
2023-05-13T16:08:54.896Z,36.67
2023-05-13T16:14:26.054Z,37.19
2023-05-13T16:19:59.276Z,37.50
2023-05-13T16:25:52.706Z,37.81
2023-05-13T16:31:54.621Z,38.03
2023-05-13T16:38:57.367Z,38.39
2023-05-13T16:45:39.933Z,38.61
2023-05-13T16:52:42.652Z,38.94
2023-05-13T16:59:17.296Z,39.18
2023-05-13T17:06:01.891Z,39.60
2023-05-13T17:12:16.057Z,39.80
2023-05-13T17:18:37.400Z,39.82
2023-05-13T17:25:13.901Z,39.90
2023-05-13T17:32:02.842Z,39.77
2023-05-13T17:38:08.027Z,39.85
2023-05-13T17:44:08.401Z,40.02
2023-05-13T17:50:30.048Z,40.13
2023-05-13T17:56:41.028Z,40.48
2023-05-13T18:03:21.021Z,40.52
2023-05-13T18:09:31.640Z,40.63
2023-05-13T18:15:49.544Z,40.67
2023-05-13T18:22:16.944Z,41.01
2023-05-13T18:28:45.138Z,41.27
2023-05-13T18:35:20.802Z,41.81
2023-05-13T18:41:45.711Z,42.41
2023-05-13T18:47:48.718Z,42.79
2023-05-13T18:54:43.815Z,43.27
2023-05-13T19:01:05.763Z,43.60
2023-05-13T19:07:43.952Z,44.14
2023-05-13T19:14:22.336Z,44.66
2023-05-13T19:20:50.134Z,45.04
2023-05-13T19:27:02.479Z,45.46
2023-05-13T19:33:19.295Z,46.04
2023-05-13T19:38:34.429Z,46.18
2023-05-13T19:45:08.084Z,46.52
2023-05-13T19:51:49.833Z,47.05
2023-05-13T19:58:11.624Z,47.28
2023-05-13T20:04:50.672Z,47.90
2023-05-13T20:11:12.389Z,48.45
2023-05-13T20:17:07.803Z,49.09
2023-05-13T20:22:56.599Z,49.00
2023-05-13T20:29:21.657Z,49.33
2023-05-13T20:36:08.441Z,49.92
2023-05-13T20:43:08.297Z,50.17
2023-05-13T20:50:03.933Z,50.89
2023-05-13T20:56:43.182Z,51.39
2023-05-13T21:03:45.271Z,51.91
2023-05-13T21:10:46.850Z,52.33
2023-05-13T21:17:50.726Z,53.21
2023-05-13T21:24:18.656Z,53.84
2023-05-13T21:30:32.161Z,53.77
2023-05-13T21:36:39.206Z,54.02
2023-05-13T21:43:14.164Z,54.36
2023-05-13T21:49:21.605Z,54.16
2023-05-13T21:56:01.271Z,54.24
2023-05-13T22:02:47.429Z,54.67
2023-05-13T22:09:07.261Z,54.41
2023-05-13T22:15:30.961Z,54.54
2023-05-13T22:21:40.636Z,55.09
2023-05-13T22:27:51.131Z,55.07
2023-05-13T22:34:47.458Z,55.55
2023-05-13T22:41:42.493Z,55.71
2023-05-13T22:48:45.252Z,56.00
2023-05-13T22:55:28.249Z,56.41
2023-05-13T23:01:40.599Z,56.61
2023-05-13T23:08:43.413Z,57.05
2023-05-13T23:15:10.834Z,57.38
2023-05-13T23:21:44.645Z,57.69
2023-05-13T23:28:39.164Z,58.06
2023-05-13T23:34:57.980Z,58.40
2023-05-13T23:41:27.519Z,58.73
2023-05-13T23:48:22.848Z,59.04
2023-05-13T23:55:11.452Z,59.24
